sensor_id;sensor_type;location;lat;lon;timestamp;P1;durP1;ratioP1;P2;durP2;ratioP2
6442;SDS011;3254;47.372;8.512;2023-09-18T00:01:01;4.63;;;4.20;;
6442;SDS011;3254;47.372;8.512;2023-09-18T00:03:26;6.87;;;4.60;;
6442;SDS011;3254;47.372;8.512;2023-09-18T00:05:52;7.93;;;4.13;;
6442;SDS011;3254;47.372;8.512;2023-09-18T00:08:19;13.00;;;4.50;;
6442;SDS011;3254;47.372;8.512;2023-09-18T00:10:49;7.17;;;4.97;;
6442;SDS011;3254;47.372;8.512;2023-09-18T00:13:19;10.43;;;4.60;;
6442;SDS011;3254;47.372;8.512;2023-09-18T00:15:49;8.30;;;4.37;;
6442;SDS011;3254;47.372;8.512;2023-09-18T00:18:19;9.10;;;4.97;;
6442;SDS011;3254;47.372;8.512;2023-09-18T00:20:45;5.67;;;4.57;;
6442;SDS011;3254;47.372;8.512;2023-09-18T00:23:13;9.67;;;4.40;;
6442;SDS011;3254;47.372;8.512;2023-09-18T00:25:40;6.83;;;5.33;;
6442;SDS011;3254;47.372;8.512;2023-09-18T00:28:07;5.57;;;4.93;;
6442;SDS011;3254;47.372;8.512;2023-09-18T00:30:33;5.87;;;5.20;;
6442;SDS011;3254;47.372;8.512;2023-09-18T00:32:59;5.23;;;4.50;;
6442;SDS011;3254;47.372;8.512;2023-09-18T00:35:26;9.97;;;4.87;;
6442;SDS011;3254;47.372;8.512;2023-09-18T00:37:52;7.53;;;5.67;;
6442;SDS011;3254;47.372;8.512;2023-09-18T00:40:18;7.03;;;5.97;;
6442;SDS011;3254;47.372;8.512;2023-09-18T00:42:44;9.57;;;5.80;;
6442;SDS011;3254;47.372;8.512;2023-09-18T00:45:10;7.37;;;5.47;;
6442;SDS011;3254;47.372;8.512;2023-09-18T00:47:36;8.40;;;5.30;;
6442;SDS011;3254;47.372;8.512;2023-09-18T00:50:02;6.73;;;5.80;;
6442;SDS011;3254;47.372;8.512;2023-09-18T00:52:29;8.00;;;5.83;;
6442;SDS011;3254;47.372;8.512;2023-09-18T00:54:58;7.17;;;5.13;;
6442;SDS011;3254;47.372;8.512;2023-09-18T00:57:26;7.23;;;5.30;;
6442;SDS011;3254;47.372;8.512;2023-09-18T00:59:54;5.77;;;4.60;;
6442;SDS011;3254;47.372;8.512;2023-09-18T01:02:20;9.60;;;4.80;;
6442;SDS011;3254;47.372;8.512;2023-09-18T01:04:46;8.20;;;4.63;;
6442;SDS011;3254;47.372;8.512;2023-09-18T01:07:14;7.20;;;5.10;;
6442;SDS011;3254;47.372;8.512;2023-09-18T01:09:42;7.63;;;5.17;;
6442;SDS011;3254;47.372;8.512;2023-09-18T01:12:17;8.80;;;5.47;;
6442;SDS011;3254;47.372;8.512;2023-09-18T01:14:57;8.43;;;5.43;;
6442;SDS011;3254;47.372;8.512;2023-09-18T01:17:43;11.97;;;5.40;;
6442;SDS011;3254;47.372;8.512;2023-09-18T01:20:11;16.20;;;5.70;;
6442;SDS011;3254;47.372;8.512;2023-09-18T01:22:37;8.73;;;4.60;;
6442;SDS011;3254;47.372;8.512;2023-09-18T01:25:03;7.93;;;4.70;;
6442;SDS011;3254;47.372;8.512;2023-09-18T01:27:29;8.70;;;5.20;;
6442;SDS011;3254;47.372;8.512;2023-09-18T01:29:55;5.13;;;4.23;;
6442;SDS011;3254;47.372;8.512;2023-09-18T01:32:21;10.00;;;4.93;;
6442;SDS011;3254;47.372;8.512;2023-09-18T01:34:53;9.93;;;5.50;;
6442;SDS011;3254;47.372;8.512;2023-09-18T01:37:23;6.30;;;4.30;;
6442;SDS011;3254;47.372;8.512;2023-09-18T01:39:53;10.80;;;4.67;;
6442;SDS011;3254;47.372;8.512;2023-09-18T01:42:25;9.13;;;4.97;;
6442;SDS011;3254;47.372;8.512;2023-09-18T01:44:52;8.80;;;5.13;;
6442;SDS011;3254;47.372;8.512;2023-09-18T01:47:20;14.23;;;5.33;;
6442;SDS011;3254;47.372;8.512;2023-09-18T01:49:52;17.27;;;5.80;;
6442;SDS011;3254;47.372;8.512;2023-09-18T01:52:20;13.33;;;6.23;;
6442;SDS011;3254;47.372;8.512;2023-09-18T01:54:46;9.07;;;6.27;;
6442;SDS011;3254;47.372;8.512;2023-09-18T01:57:13;11.93;;;6.20;;
6442;SDS011;3254;47.372;8.512;2023-09-18T01:59:38;10.90;;;6.33;;
6442;SDS011;3254;47.372;8.512;2023-09-18T02:02:04;6.73;;;6.20;;
6442;SDS011;3254;47.372;8.512;2023-09-18T02:04:35;8.90;;;5.73;;
6442;SDS011;3254;47.372;8.512;2023-09-18T02:07:02;17.03;;;6.30;;
6442;SDS011;3254;47.372;8.512;2023-09-18T02:09:33;8.40;;;6.90;;
6442;SDS011;3254;47.372;8.512;2023-09-18T02:11:58;12.20;;;6.70;;
6442;SDS011;3254;47.372;8.512;2023-09-18T02:14:24;9.43;;;7.30;;
6442;SDS011;3254;47.372;8.512;2023-09-18T02:16:49;13.80;;;5.80;;
6442;SDS011;3254;47.372;8.512;2023-09-18T02:19:16;8.63;;;6.53;;
6442;SDS011;3254;47.372;8.512;2023-09-18T02:21:45;11.33;;;6.60;;
6442;SDS011;3254;47.372;8.512;2023-09-18T02:24:11;11.37;;;6.97;;
6442;SDS011;3254;47.372;8.512;2023-09-18T02:26:37;6.73;;;6.03;;
6442;SDS011;3254;47.372;8.512;2023-09-18T02:29:05;6.70;;;6.10;;
6442;SDS011;3254;47.372;8.512;2023-09-18T02:31:40;6.60;;;5.63;;
6442;SDS011;3254;47.372;8.512;2023-09-18T02:34:05;6.10;;;5.50;;
6442;SDS011;3254;47.372;8.512;2023-09-18T02:36:33;6.30;;;4.83;;
6442;SDS011;3254;47.372;8.512;2023-09-18T02:38:58;6.00;;;4.63;;
6442;SDS011;3254;47.372;8.512;2023-09-18T02:41:24;5.40;;;4.90;;
6442;SDS011;3254;47.372;8.512;2023-09-18T02:43:49;13.60;;;4.50;;
6442;SDS011;3254;47.372;8.512;2023-09-18T02:46:15;9.80;;;5.03;;
6442;SDS011;3254;47.372;8.512;2023-09-18T02:48:41;5.07;;;4.67;;
6442;SDS011;3254;47.372;8.512;2023-09-18T02:51:07;5.53;;;4.43;;
6442;SDS011;3254;47.372;8.512;2023-09-18T02:53:33;5.37;;;4.07;;
6442;SDS011;3254;47.372;8.512;2023-09-18T02:55:59;5.93;;;4.20;;
6442;SDS011;3254;47.372;8.512;2023-09-18T02:58:25;5.10;;;4.60;;
6442;SDS011;3254;47.372;8.512;2023-09-18T03:00:51;9.50;;;4.40;;
6442;SDS011;3254;47.372;8.512;2023-09-18T03:03:24;5.07;;;3.97;;
6442;SDS011;3254;47.372;8.512;2023-09-18T03:05:50;6.47;;;4.23;;
6442;SDS011;3254;47.372;8.512;2023-09-18T03:08:17;8.57;;;4.17;;
6442;SDS011;3254;47.372;8.512;2023-09-18T03:10:44;9.33;;;3.90;;
6442;SDS011;3254;47.372;8.512;2023-09-18T03:13:10;9.97;;;3.60;;
6442;SDS011;3254;47.372;8.512;2023-09-18T03:15:39;6.90;;;3.50;;
6442;SDS011;3254;47.372;8.512;2023-09-18T03:18:09;20.40;;;4.97;;
6442;SDS011;3254;47.372;8.512;2023-09-18T03:20:35;13.40;;;4.07;;
6442;SDS011;3254;47.372;8.512;2023-09-18T03:23:01;14.17;;;4.10;;
6442;SDS011;3254;47.372;8.512;2023-09-18T03:25:27;10.83;;;3.80;;
6442;SDS011;3254;47.372;8.512;2023-09-18T03:27:54;16.00;;;4.80;;
6442;SDS011;3254;47.372;8.512;2023-09-18T03:30:21;10.17;;;4.03;;
6442;SDS011;3254;47.372;8.512;2023-09-18T03:32:48;15.40;;;3.93;;
6442;SDS011;3254;47.372;8.512;2023-09-18T03:35:15;10.90;;;3.70;;
6442;SDS011;3254;47.372;8.512;2023-09-18T03:37:46;12.73;;;4.07;;
6442;SDS011;3254;47.372;8.512;2023-09-18T03:40:15;21.63;;;4.13;;
6442;SDS011;3254;47.372;8.512;2023-09-18T03:42:42;18.20;;;4.27;;
6442;SDS011;3254;47.372;8.512;2023-09-18T03:45:08;10.23;;;3.67;;
6442;SDS011;3254;47.372;8.512;2023-09-18T03:47:37;15.40;;;3.83;;
6442;SDS011;3254;47.372;8.512;2023-09-18T03:50:08;11.00;;;4.13;;
6442;SDS011;3254;47.372;8.512;2023-09-18T03:52:38;10.57;;;3.33;;
6442;SDS011;3254;47.372;8.512;2023-09-18T03:55:07;13.23;;;3.80;;
6442;SDS011;3254;47.372;8.512;2023-09-18T03:57:34;11.63;;;3.30;;
6442;SDS011;3254;47.372;8.512;2023-09-18T04:00:03;8.10;;;3.17;;
6442;SDS011;3254;47.372;8.512;2023-09-18T04:02:35;8.90;;;3.70;;
6442;SDS011;3254;47.372;8.512;2023-09-18T04:05:01;11.27;;;3.73;;
6442;SDS011;3254;47.372;8.512;2023-09-18T04:07:27;10.53;;;4.07;;
6442;SDS011;3254;47.372;8.512;2023-09-18T04:09:52;15.00;;;3.67;;
6442;SDS011;3254;47.372;8.512;2023-09-18T04:12:18;9.57;;;3.70;;
6442;SDS011;3254;47.372;8.512;2023-09-18T04:14:45;13.50;;;3.90;;
6442;SDS011;3254;47.372;8.512;2023-09-18T04:17:10;10.23;;;3.80;;
6442;SDS011;3254;47.372;8.512;2023-09-18T04:19:36;10.97;;;3.67;;
6442;SDS011;3254;47.372;8.512;2023-09-18T04:22:01;11.87;;;3.63;;
6442;SDS011;3254;47.372;8.512;2023-09-18T04:24:28;12.37;;;3.73;;
6442;SDS011;3254;47.372;8.512;2023-09-18T04:26:54;10.80;;;4.10;;
6442;SDS011;3254;47.372;8.512;2023-09-18T04:29:20;18.43;;;4.93;;
6442;SDS011;3254;47.372;8.512;2023-09-18T04:31:46;9.60;;;4.27;;
6442;SDS011;3254;47.372;8.512;2023-09-18T04:34:13;11.03;;;4.10;;
6442;SDS011;3254;47.372;8.512;2023-09-18T04:36:40;17.20;;;4.63;;
6442;SDS011;3254;47.372;8.512;2023-09-18T04:39:08;11.40;;;4.60;;
6442;SDS011;3254;47.372;8.512;2023-09-18T04:41:36;14.93;;;4.73;;
6442;SDS011;3254;47.372;8.512;2023-09-18T04:44:02;6.73;;;4.27;;
6442;SDS011;3254;47.372;8.512;2023-09-18T04:46:28;8.00;;;4.67;;
6442;SDS011;3254;47.372;8.512;2023-09-18T04:48:55;12.90;;;4.10;;
6442;SDS011;3254;47.372;8.512;2023-09-18T04:51:20;15.27;;;5.37;;
6442;SDS011;3254;47.372;8.512;2023-09-18T04:53:46;12.70;;;5.40;;
6442;SDS011;3254;47.372;8.512;2023-09-18T04:56:12;9.90;;;4.57;;
6442;SDS011;3254;47.372;8.512;2023-09-18T04:58:38;14.60;;;4.70;;
6442;SDS011;3254;47.372;8.512;2023-09-18T05:01:04;15.93;;;6.20;;
6442;SDS011;3254;47.372;8.512;2023-09-18T05:03:35;17.37;;;5.30;;
6442;SDS011;3254;47.372;8.512;2023-09-18T05:06:01;13.17;;;4.77;;
6442;SDS011;3254;47.372;8.512;2023-09-18T05:08:28;14.83;;;4.60;;
6442;SDS011;3254;47.372;8.512;2023-09-18T05:10:54;11.23;;;3.87;;
6442;SDS011;3254;47.372;8.512;2023-09-18T05:13:20;8.53;;;4.20;;
6442;SDS011;3254;47.372;8.512;2023-09-18T05:15:46;20.20;;;4.77;;
6442;SDS011;3254;47.372;8.512;2023-09-18T05:18:11;9.43;;;4.07;;
6442;SDS011;3254;47.372;8.512;2023-09-18T05:20:38;13.07;;;4.20;;
6442;SDS011;3254;47.372;8.512;2023-09-18T05:23:04;15.03;;;5.50;;
6442;SDS011;3254;47.372;8.512;2023-09-18T05:25:33;22.00;;;5.27;;
6442;SDS011;3254;47.372;8.512;2023-09-18T05:27:59;13.43;;;5.73;;
6442;SDS011;3254;47.372;8.512;2023-09-18T05:30:30;22.70;;;5.13;;
6442;SDS011;3254;47.372;8.512;2023-09-18T05:33:02;21.43;;;4.73;;
6442;SDS011;3254;47.372;8.512;2023-09-18T05:35:35;11.20;;;4.87;;
6442;SDS011;3254;47.372;8.512;2023-09-18T05:38:07;12.23;;;5.20;;
6442;SDS011;3254;47.372;8.512;2023-09-18T05:40:33;12.43;;;4.90;;
6442;SDS011;3254;47.372;8.512;2023-09-18T05:42:59;29.33;;;5.20;;
6442;SDS011;3254;47.372;8.512;2023-09-18T05:45:25;27.23;;;5.30;;
6442;SDS011;3254;47.372;8.512;2023-09-18T05:47:52;18.53;;;5.00;;
6442;SDS011;3254;47.372;8.512;2023-09-18T05:50:28;12.50;;;5.33;;
6442;SDS011;3254;47.372;8.512;2023-09-18T05:52:55;19.80;;;4.90;;
6442;SDS011;3254;47.372;8.512;2023-09-18T05:55:24;19.20;;;4.50;;
6442;SDS011;3254;47.372;8.512;2023-09-18T05:57:50;11.07;;;5.33;;
6442;SDS011;3254;47.372;8.512;2023-09-18T06:00:18;15.00;;;5.43;;
6442;SDS011;3254;47.372;8.512;2023-09-18T06:02:46;19.47;;;6.10;;
6442;SDS011;3254;47.372;8.512;2023-09-18T06:05:13;18.93;;;4.40;;
6442;SDS011;3254;47.372;8.512;2023-09-18T06:07:41;13.77;;;4.33;;
6442;SDS011;3254;47.372;8.512;2023-09-18T06:10:07;16.10;;;4.97;;
6442;SDS011;3254;47.372;8.512;2023-09-18T06:12:33;12.63;;;3.93;;
6442;SDS011;3254;47.372;8.512;2023-09-18T06:14:59;11.60;;;4.50;;
6442;SDS011;3254;47.372;8.512;2023-09-18T06:17:26;12.37;;;4.10;;
6442;SDS011;3254;47.372;8.512;2023-09-18T06:19:52;9.27;;;3.90;;
6442;SDS011;3254;47.372;8.512;2023-09-18T06:22:19;10.60;;;4.13;;
6442;SDS011;3254;47.372;8.512;2023-09-18T06:24:45;13.30;;;4.27;;
6442;SDS011;3254;47.372;8.512;2023-09-18T06:27:10;9.30;;;3.80;;
6442;SDS011;3254;47.372;8.512;2023-09-18T06:29:36;16.67;;;4.20;;
6442;SDS011;3254;47.372;8.512;2023-09-18T06:32:03;15.40;;;4.30;;
6442;SDS011;3254;47.372;8.512;2023-09-18T06:34:32;25.47;;;3.90;;
6442;SDS011;3254;47.372;8.512;2023-09-18T06:36:57;19.10;;;4.77;;
6442;SDS011;3254;47.372;8.512;2023-09-18T06:39:24;16.90;;;4.10;;
6442;SDS011;3254;47.372;8.512;2023-09-18T06:41:51;19.63;;;4.20;;
6442;SDS011;3254;47.372;8.512;2023-09-18T06:44:16;19.20;;;4.33;;
6442;SDS011;3254;47.372;8.512;2023-09-18T06:46:42;14.60;;;4.17;;
6442;SDS011;3254;47.372;8.512;2023-09-18T06:49:07;15.87;;;4.20;;
6442;SDS011;3254;47.372;8.512;2023-09-18T06:51:33;11.60;;;3.97;;
6442;SDS011;3254;47.372;8.512;2023-09-18T06:54:00;18.40;;;4.00;;
6442;SDS011;3254;47.372;8.512;2023-09-18T06:56:28;27.27;;;5.07;;
6442;SDS011;3254;47.372;8.512;2023-09-18T06:58:55;12.53;;;4.70;;
6442;SDS011;3254;47.372;8.512;2023-09-18T07:01:21;10.70;;;4.40;;
6442;SDS011;3254;47.372;8.512;2023-09-18T07:03:47;17.70;;;4.63;;
6442;SDS011;3254;47.372;8.512;2023-09-18T07:06:13;11.73;;;4.37;;
6442;SDS011;3254;47.372;8.512;2023-09-18T07:08:42;7.30;;;3.90;;
6442;SDS011;3254;47.372;8.512;2023-09-18T07:11:08;12.07;;;3.63;;
6442;SDS011;3254;47.372;8.512;2023-09-18T07:13:34;14.60;;;3.90;;
6442;SDS011;3254;47.372;8.512;2023-09-18T07:15:59;9.60;;;4.37;;
6442;SDS011;3254;47.372;8.512;2023-09-18T07:18:25;13.70;;;4.17;;
6442;SDS011;3254;47.372;8.512;2023-09-18T07:20:51;17.00;;;4.90;;
6442;SDS011;3254;47.372;8.512;2023-09-18T07:23:17;20.40;;;4.90;;
6442;SDS011;3254;47.372;8.512;2023-09-18T07:25:42;22.17;;;5.40;;
6442;SDS011;3254;47.372;8.512;2023-09-18T07:28:09;13.60;;;4.90;;
6442;SDS011;3254;47.372;8.512;2023-09-18T07:30:41;13.67;;;4.60;;
6442;SDS011;3254;47.372;8.512;2023-09-18T07:33:06;8.97;;;5.00;;
6442;SDS011;3254;47.372;8.512;2023-09-18T07:35:33;19.00;;;4.50;;
6442;SDS011;3254;47.372;8.512;2023-09-18T07:37:59;18.80;;;5.30;;
6442;SDS011;3254;47.372;8.512;2023-09-18T07:40:25;12.30;;;4.90;;
6442;SDS011;3254;47.372;8.512;2023-09-18T07:42:52;10.60;;;4.77;;
6442;SDS011;3254;47.372;8.512;2023-09-18T07:45:18;14.53;;;4.50;;
6442;SDS011;3254;47.372;8.512;2023-09-18T07:47:44;11.60;;;4.10;;
6442;SDS011;3254;47.372;8.512;2023-09-18T07:50:09;9.00;;;4.00;;
6442;SDS011;3254;47.372;8.512;2023-09-18T07:52:35;12.03;;;3.70;;
6442;SDS011;3254;47.372;8.512;2023-09-18T07:55:02;8.73;;;4.07;;
6442;SDS011;3254;47.372;8.512;2023-09-18T07:57:28;10.40;;;3.70;;
6442;SDS011;3254;47.372;8.512;2023-09-18T07:59:55;10.80;;;3.53;;
6442;SDS011;3254;47.372;8.512;2023-09-18T08:02:21;5.60;;;3.90;;
6442;SDS011;3254;47.372;8.512;2023-09-18T08:04:47;9.20;;;3.47;;
6442;SDS011;3254;47.372;8.512;2023-09-18T08:07:14;6.27;;;3.10;;
6442;SDS011;3254;47.372;8.512;2023-09-18T08:09:39;18.03;;;3.20;;
6442;SDS011;3254;47.372;8.512;2023-09-18T08:12:08;7.37;;;2.97;;
6442;SDS011;3254;47.372;8.512;2023-09-18T08:14:35;16.77;;;3.50;;
6442;SDS011;3254;47.372;8.512;2023-09-18T08:17:04;17.27;;;3.03;;
6442;SDS011;3254;47.372;8.512;2023-09-18T08:19:29;3.20;;;2.90;;
6442;SDS011;3254;47.372;8.512;2023-09-18T08:21:58;4.37;;;2.77;;
6442;SDS011;3254;47.372;8.512;2023-09-18T08:24:26;6.30;;;2.63;;
6442;SDS011;3254;47.372;8.512;2023-09-18T08:26:52;4.17;;;2.70;;
6442;SDS011;3254;47.372;8.512;2023-09-18T08:29:21;3.83;;;2.90;;
6442;SDS011;3254;47.372;8.512;2023-09-18T08:31:48;5.20;;;3.40;;
6442;SDS011;3254;47.372;8.512;2023-09-18T08:34:16;4.90;;;2.63;;
6442;SDS011;3254;47.372;8.512;2023-09-18T08:36:42;5.67;;;3.33;;
6442;SDS011;3254;47.372;8.512;2023-09-18T08:39:08;10.13;;;3.30;;
6442;SDS011;3254;47.372;8.512;2023-09-18T08:41:37;6.10;;;3.17;;
6442;SDS011;3254;47.372;8.512;2023-09-18T08:44:07;8.93;;;2.63;;
6442;SDS011;3254;47.372;8.512;2023-09-18T08:46:35;4.53;;;1.80;;
6442;SDS011;3254;47.372;8.512;2023-09-18T08:49:02;3.73;;;1.90;;
6442;SDS011;3254;47.372;8.512;2023-09-18T08:51:30;4.67;;;1.90;;
6442;SDS011;3254;47.372;8.512;2023-09-18T08:54:00;1.80;;;1.70;;
6442;SDS011;3254;47.372;8.512;2023-09-18T08:56:27;4.90;;;2.00;;
6442;SDS011;3254;47.372;8.512;2023-09-18T08:58:54;3.07;;;1.70;;
6442;SDS011;3254;47.372;8.512;2023-09-18T09:01:21;4.40;;;1.70;;
6442;SDS011;3254;47.372;8.512;2023-09-18T09:03:47;3.07;;;1.73;;
6442;SDS011;3254;47.372;8.512;2023-09-18T09:06:13;3.73;;;1.60;;
6442;SDS011;3254;47.372;8.512;2023-09-18T09:08:39;6.33;;;1.90;;
6442;SDS011;3254;47.372;8.512;2023-09-18T09:11:05;6.20;;;2.07;;
6442;SDS011;3254;47.372;8.512;2023-09-18T09:13:32;7.63;;;2.00;;
6442;SDS011;3254;47.372;8.512;2023-09-18T09:15:58;2.23;;;2.03;;
6442;SDS011;3254;47.372;8.512;2023-09-18T09:18:26;3.60;;;1.97;;
6442;SDS011;3254;47.372;8.512;2023-09-18T09:21:00;3.93;;;2.00;;
6442;SDS011;3254;47.372;8.512;2023-09-18T09:23:49;6.23;;;1.80;;
6442;SDS011;3254;47.372;8.512;2023-09-18T09:26:17;5.03;;;1.50;;
6442;SDS011;3254;47.372;8.512;2023-09-18T09:28:46;2.73;;;1.70;;
6442;SDS011;3254;47.372;8.512;2023-09-18T09:31:34;4.60;;;1.87;;
6442;SDS011;3254;47.372;8.512;2023-09-18T09:34:00;2.17;;;1.40;;
6442;SDS011;3254;47.372;8.512;2023-09-18T09:36:30;2.03;;;1.73;;
6442;SDS011;3254;47.372;8.512;2023-09-18T09:38:58;1.27;;;1.17;;
6442;SDS011;3254;47.372;8.512;2023-09-18T09:41:25;4.93;;;1.40;;
6442;SDS011;3254;47.372;8.512;2023-09-18T09:43:53;1.77;;;1.27;;
6442;SDS011;3254;47.372;8.512;2023-09-18T09:46:22;3.73;;;1.67;;
6442;SDS011;3254;47.372;8.512;2023-09-18T09:51:31;3.07;;;1.57;;
6442;SDS011;3254;47.372;8.512;2023-09-18T09:53:59;4.60;;;2.30;;
6442;SDS011;3254;47.372;8.512;2023-09-18T09:56:47;1.90;;;1.70;;
6442;SDS011;3254;47.372;8.512;2023-09-18T09:59:15;3.63;;;1.63;;
6442;SDS011;3254;47.372;8.512;2023-09-18T10:01:43;2.33;;;1.90;;
6442;SDS011;3254;47.372;8.512;2023-09-18T10:04:15;1.97;;;1.67;;
6442;SDS011;3254;47.372;8.512;2023-09-18T10:06:44;3.93;;;1.80;;
6442;SDS011;3254;47.372;8.512;2023-09-18T10:09:14;2.80;;;1.77;;
6442;SDS011;3254;47.372;8.512;2023-09-18T10:11:52;2.37;;;2.17;;
6442;SDS011;3254;47.372;8.512;2023-09-18T10:14:21;2.40;;;1.50;;
6442;SDS011;3254;47.372;8.512;2023-09-18T10:16:56;3.73;;;1.20;;
6442;SDS011;3254;47.372;8.512;2023-09-18T10:19:28;1.60;;;1.50;;
6442;SDS011;3254;47.372;8.512;2023-09-18T10:22:13;3.47;;;1.27;;
6442;SDS011;3254;47.372;8.512;2023-09-18T10:24:47;7.43;;;1.70;;
6442;SDS011;3254;47.372;8.512;2023-09-18T10:27:19;2.40;;;1.27;;
6442;SDS011;3254;47.372;8.512;2023-09-18T10:29:47;3.13;;;1.57;;
6442;SDS011;3254;47.372;8.512;2023-09-18T10:32:16;9.20;;;2.03;;
6442;SDS011;3254;47.372;8.512;2023-09-18T10:34:45;4.20;;;1.30;;
6442;SDS011;3254;47.372;8.512;2023-09-18T10:37:12;2.03;;;1.30;;
6442;SDS011;3254;47.372;8.512;2023-09-18T10:39:40;4.97;;;1.30;;
6442;SDS011;3254;47.372;8.512;2023-09-18T10:42:07;2.23;;;1.23;;
6442;SDS011;3254;47.372;8.512;2023-09-18T10:44:35;5.37;;;1.40;;
6442;SDS011;3254;47.372;8.512;2023-09-18T10:47:06;2.20;;;1.60;;
6442;SDS011;3254;47.372;8.512;2023-09-18T10:49:34;5.50;;;1.37;;
6442;SDS011;3254;47.372;8.512;2023-09-18T10:52:02;3.53;;;1.10;;
6442;SDS011;3254;47.372;8.512;2023-09-18T10:54:29;6.13;;;1.10;;
6442;SDS011;3254;47.372;8.512;2023-09-18T10:56:56;3.27;;;1.40;;
6442;SDS011;3254;47.372;8.512;2023-09-18T10:59:22;9.03;;;1.30;;
6442;SDS011;3254;47.372;8.512;2023-09-18T11:01:48;2.60;;;1.77;;
6442;SDS011;3254;47.372;8.512;2023-09-18T11:04:17;1.00;;;0.90;;
6442;SDS011;3254;47.372;8.512;2023-09-18T11:09:20;5.50;;;1.30;;
6442;SDS011;3254;47.372;8.512;2023-09-18T11:14:45;2.47;;;1.10;;
6442;SDS011;3254;47.372;8.512;2023-09-18T11:20:18;3.27;;;1.20;;
6442;SDS011;3254;47.372;8.512;2023-09-18T11:25:41;3.27;;;1.17;;
6442;SDS011;3254;47.372;8.512;2023-09-18T11:28:12;1.50;;;1.20;;
6442;SDS011;3254;47.372;8.512;2023-09-18T11:31:02;2.83;;;1.17;;
6442;SDS011;3254;47.372;8.512;2023-09-18T11:33:31;1.50;;;1.10;;
6442;SDS011;3254;47.372;8.512;2023-09-18T11:36:05;4.50;;;1.70;;
6442;SDS011;3254;47.372;8.512;2023-09-18T11:38:33;2.17;;;1.17;;
6442;SDS011;3254;47.372;8.512;2023-09-18T11:41:01;5.43;;;1.50;;
6442;SDS011;3254;47.372;8.512;2023-09-18T11:43:44;2.23;;;1.50;;
6442;SDS011;3254;47.372;8.512;2023-09-18T11:46:10;2.23;;;1.40;;
6442;SDS011;3254;47.372;8.512;2023-09-18T11:48:38;5.80;;;1.50;;
6442;SDS011;3254;47.372;8.512;2023-09-18T11:51:07;3.20;;;1.33;;
6442;SDS011;3254;47.372;8.512;2023-09-18T11:53:36;1.97;;;1.23;;
6442;SDS011;3254;47.372;8.512;2023-09-18T11:56:11;2.87;;;1.70;;
6442;SDS011;3254;47.372;8.512;2023-09-18T11:58:46;3.67;;;1.60;;
6442;SDS011;3254;47.372;8.512;2023-09-18T12:01:13;2.87;;;1.73;;
6442;SDS011;3254;47.372;8.512;2023-09-18T12:03:44;3.43;;;1.27;;
6442;SDS011;3254;47.372;8.512;2023-09-18T12:06:10;2.53;;;1.50;;
6442;SDS011;3254;47.372;8.512;2023-09-18T12:08:42;2.57;;;1.30;;
6442;SDS011;3254;47.372;8.512;2023-09-18T12:11:07;3.47;;;1.83;;
6442;SDS011;3254;47.372;8.512;2023-09-18T12:13:33;1.73;;;1.57;;
6442;SDS011;3254;47.372;8.512;2023-09-18T12:15:59;3.90;;;1.90;;
6442;SDS011;3254;47.372;8.512;2023-09-18T12:18:33;2.90;;;1.37;;
6442;SDS011;3254;47.372;8.512;2023-09-18T12:21:05;3.43;;;1.53;;
6442;SDS011;3254;47.372;8.512;2023-09-18T12:23:36;1.60;;;1.20;;
6442;SDS011;3254;47.372;8.512;2023-09-18T12:26:03;4.00;;;1.90;;
6442;SDS011;3254;47.372;8.512;2023-09-18T12:28:28;10.33;;;1.70;;
6442;SDS011;3254;47.372;8.512;2023-09-18T12:30:56;2.63;;;1.50;;
6442;SDS011;3254;47.372;8.512;2023-09-18T12:33:34;3.13;;;1.33;;
6442;SDS011;3254;47.372;8.512;2023-09-18T12:36:04;3.27;;;1.40;;
6442;SDS011;3254;47.372;8.512;2023-09-18T12:38:31;2.53;;;1.60;;
6442;SDS011;3254;47.372;8.512;2023-09-18T12:40:58;2.10;;;1.20;;
6442;SDS011;3254;47.372;8.512;2023-09-18T12:43:45;2.77;;;1.30;;
6442;SDS011;3254;47.372;8.512;2023-09-18T12:46:10;1.33;;;0.90;;
6442;SDS011;3254;47.372;8.512;2023-09-18T12:48:38;3.27;;;1.03;;
6442;SDS011;3254;47.372;8.512;2023-09-18T12:51:10;4.93;;;0.80;;
6442;SDS011;3254;47.372;8.512;2023-09-18T12:53:36;1.60;;;0.90;;
6442;SDS011;3254;47.372;8.512;2023-09-18T12:56:09;1.07;;;0.93;;
6442;SDS011;3254;47.372;8.512;2023-09-18T12:58:42;1.80;;;1.40;;
6442;SDS011;3254;47.372;8.512;2023-09-18T13:01:09;0.90;;;0.80;;
6442;SDS011;3254;47.372;8.512;2023-09-18T13:03:46;2.10;;;0.87;;
6442;SDS011;3254;47.372;8.512;2023-09-18T13:06:14;1.07;;;0.80;;
6442;SDS011;3254;47.372;8.512;2023-09-18T13:08:42;1.97;;;0.97;;
6442;SDS011;3254;47.372;8.512;2023-09-18T13:11:09;1.03;;;0.60;;
6442;SDS011;3254;47.372;8.512;2023-09-18T13:13:37;2.73;;;1.30;;
6442;SDS011;3254;47.372;8.512;2023-09-18T13:16:06;2.33;;;1.10;;
6442;SDS011;3254;47.372;8.512;2023-09-18T13:18:38;1.50;;;1.10;;
6442;SDS011;3254;47.372;8.512;2023-09-18T13:21:10;1.93;;;1.20;;
6442;SDS011;3254;47.372;8.512;2023-09-18T13:23:37;0.90;;;0.70;;
6442;SDS011;3254;47.372;8.512;2023-09-18T13:26:04;3.33;;;0.73;;
6442;SDS011;3254;47.372;8.512;2023-09-18T13:28:32;2.10;;;0.90;;
6442;SDS011;3254;47.372;8.512;2023-09-18T13:31:00;1.07;;;0.90;;
6442;SDS011;3254;47.372;8.512;2023-09-18T13:33:30;4.03;;;1.07;;
6442;SDS011;3254;47.372;8.512;2023-09-18T13:35:57;1.23;;;0.80;;
6442;SDS011;3254;47.372;8.512;2023-09-18T13:38:24;1.37;;;0.80;;
6442;SDS011;3254;47.372;8.512;2023-09-18T13:40:51;1.40;;;0.83;;
6442;SDS011;3254;47.372;8.512;2023-09-18T13:43:18;1.70;;;0.80;;
6442;SDS011;3254;47.372;8.512;2023-09-18T13:45:47;2.40;;;0.77;;
6442;SDS011;3254;47.372;8.512;2023-09-18T13:48:18;0.90;;;0.80;;
6442;SDS011;3254;47.372;8.512;2023-09-18T13:50:44;7.13;;;0.90;;
6442;SDS011;3254;47.372;8.512;2023-09-18T13:53:12;1.10;;;0.93;;
6442;SDS011;3254;47.372;8.512;2023-09-18T13:55:39;0.93;;;0.70;;
6442;SDS011;3254;47.372;8.512;2023-09-18T13:58:08;3.03;;;1.10;;
6442;SDS011;3254;47.372;8.512;2023-09-18T14:00:35;2.37;;;1.23;;
6442;SDS011;3254;47.372;8.512;2023-09-18T14:03:01;0.80;;;0.70;;
6442;SDS011;3254;47.372;8.512;2023-09-18T14:05:28;2.80;;;1.23;;
6442;SDS011;3254;47.372;8.512;2023-09-18T14:07:56;2.60;;;0.87;;
6442;SDS011;3254;47.372;8.512;2023-09-18T14:10:25;1.40;;;0.97;;
6442;SDS011;3254;47.372;8.512;2023-09-18T14:12:52;5.50;;;1.17;;
6442;SDS011;3254;47.372;8.512;2023-09-18T14:15:19;3.13;;;1.00;;
6442;SDS011;3254;47.372;8.512;2023-09-18T14:17:46;2.50;;;0.77;;
6442;SDS011;3254;47.372;8.512;2023-09-18T14:20:11;1.77;;;1.03;;
6442;SDS011;3254;47.372;8.512;2023-09-18T14:22:38;2.00;;;0.70;;
6442;SDS011;3254;47.372;8.512;2023-09-18T14:25:04;1.70;;;1.20;;
6442;SDS011;3254;47.372;8.512;2023-09-18T14:27:32;1.43;;;1.10;;
6442;SDS011;3254;47.372;8.512;2023-09-18T14:30:00;2.50;;;1.03;;
6442;SDS011;3254;47.372;8.512;2023-09-18T14:32:30;1.03;;;0.93;;
6442;SDS011;3254;47.372;8.512;2023-09-18T14:34:57;1.20;;;0.80;;
6442;SDS011;3254;47.372;8.512;2023-09-18T14:37:26;1.40;;;1.03;;
6442;SDS011;3254;47.372;8.512;2023-09-18T14:39:51;6.27;;;1.13;;
6442;SDS011;3254;47.372;8.512;2023-09-18T14:42:18;1.43;;;0.80;;
6442;SDS011;3254;47.372;8.512;2023-09-18T14:44:44;3.30;;;1.33;;
6442;SDS011;3254;47.372;8.512;2023-09-18T14:47:13;1.60;;;1.10;;
6442;SDS011;3254;47.372;8.512;2023-09-18T14:49:38;2.73;;;1.00;;
6442;SDS011;3254;47.372;8.512;2023-09-18T14:52:05;2.17;;;0.80;;
6442;SDS011;3254;47.372;8.512;2023-09-18T14:54:32;1.33;;;1.23;;
6442;SDS011;3254;47.372;8.512;2023-09-18T14:56:58;2.33;;;0.93;;
6442;SDS011;3254;47.372;8.512;2023-09-18T14:59:26;2.90;;;1.07;;
6442;SDS011;3254;47.372;8.512;2023-09-18T15:01:51;1.73;;;0.90;;
6442;SDS011;3254;47.372;8.512;2023-09-18T15:04:17;3.40;;;1.03;;
6442;SDS011;3254;47.372;8.512;2023-09-18T15:06:46;1.40;;;1.30;;
6442;SDS011;3254;47.372;8.512;2023-09-18T15:09:13;3.00;;;1.30;;
6442;SDS011;3254;47.372;8.512;2023-09-18T15:11:39;2.13;;;1.20;;
6442;SDS011;3254;47.372;8.512;2023-09-18T15:14:06;1.20;;;1.00;;
6442;SDS011;3254;47.372;8.512;2023-09-18T15:16:34;5.43;;;1.97;;
6442;SDS011;3254;47.372;8.512;2023-09-18T15:19:00;1.20;;;1.10;;
6442;SDS011;3254;47.372;8.512;2023-09-18T15:21:29;7.40;;;1.27;;
6442;SDS011;3254;47.372;8.512;2023-09-18T15:23:54;2.53;;;1.17;;
6442;SDS011;3254;47.372;8.512;2023-09-18T15:26:21;2.17;;;1.40;;
6442;SDS011;3254;47.372;8.512;2023-09-18T15:28:46;3.20;;;1.33;;